createdAt,value
2023-05-09T00:00:57.210Z,12.87
2023-05-09T00:03:24.119Z,11.47
2023-05-09T00:05:50.989Z,12.70
2023-05-09T00:08:17.686Z,12.03
2023-05-09T00:10:44.335Z,19.40
2023-05-09T00:13:12.168Z,13.10
2023-05-09T00:15:38.974Z,13.13
2023-05-09T00:18:05.760Z,12.87
2023-05-09T00:20:34.234Z,14.17
2023-05-09T00:23:00.933Z,13.20
2023-05-09T00:25:27.662Z,13.37
2023-05-09T00:27:54.540Z,13.80
2023-05-09T00:30:21.260Z,13.80
2023-05-09T00:32:47.956Z,12.97
2023-05-09T00:35:14.972Z,12.90
2023-05-09T00:37:41.833Z,12.00
2023-05-09T00:40:09.241Z,11.03
2023-05-09T00:42:36.724Z,12.20
2023-05-09T00:45:03.689Z,11.67
2023-05-09T00:47:30.993Z,10.87
2023-05-09T00:49:58.243Z,12.80
2023-05-09T00:52:26.422Z,12.73
2023-05-09T00:54:54.022Z,13.90
2023-05-09T00:57:20.903Z,11.53
2023-05-09T00:59:48.259Z,14.10
2023-05-09T01:02:17.420Z,15.00
2023-05-09T01:04:46.254Z,12.50
2023-05-09T01:07:23.008Z,14.03
2023-05-09T01:10:11.630Z,12.70
2023-05-09T01:13:12.608Z,12.90
2023-05-09T01:15:59.886Z,13.40
2023-05-09T01:18:36.923Z,12.73
2023-05-09T01:21:11.575Z,13.17
2023-05-09T01:23:44.517Z,12.33
2023-05-09T01:26:13.639Z,14.30
2023-05-09T01:29:17.995Z,12.80
2023-05-09T01:31:47.599Z,13.53
2023-05-09T01:34:16.395Z,11.57
2023-05-09T01:36:44.185Z,14.00
2023-05-09T01:39:13.325Z,11.73
2023-05-09T01:41:40.425Z,16.23
2023-05-09T01:44:12.201Z,11.50
2023-05-09T01:46:40.042Z,13.73
2023-05-09T01:49:09.745Z,11.33
2023-05-09T01:51:38.235Z,12.70
2023-05-09T01:54:06.881Z,12.70
2023-05-09T01:57:00.435Z,13.20
2023-05-09T01:59:29.488Z,11.53
2023-05-09T02:01:56.795Z,11.27
2023-05-09T02:04:25.013Z,11.13
2023-05-09T02:06:53.311Z,11.77
2023-05-09T02:09:21.335Z,12.73
2023-05-09T02:11:48.036Z,13.93
2023-05-09T02:14:15.251Z,13.70
2023-05-09T02:16:42.459Z,12.27
2023-05-09T02:19:09.224Z,11.53
2023-05-09T02:21:36.224Z,11.67
2023-05-09T02:24:03.664Z,11.87
2023-05-09T02:26:31.574Z,11.00
2023-05-09T02:28:59.189Z,10.97
2023-05-09T02:31:28.600Z,9.70
2023-05-09T02:33:56.640Z,10.37
2023-05-09T02:36:24.082Z,11.07
2023-05-09T02:38:51.471Z,9.90
2023-05-09T02:41:18.348Z,10.37
2023-05-09T02:43:46.019Z,10.73
2023-05-09T02:46:12.961Z,9.43
2023-05-09T02:48:40.757Z,10.07
2023-05-09T02:51:07.535Z,11.23
2023-05-09T02:53:34.343Z,11.77
2023-05-09T02:56:01.088Z,11.20
2023-05-09T02:58:27.864Z,10.30
2023-05-09T03:00:54.606Z,12.20
2023-05-09T03:03:23.717Z,10.70
2023-05-09T03:05:50.739Z,11.53
2023-05-09T03:08:17.443Z,11.53
2023-05-09T03:10:44.236Z,11.10
2023-05-09T03:13:11.586Z,11.43
2023-05-09T03:15:38.311Z,12.10
2023-05-09T03:18:05.127Z,12.13
2023-05-09T03:20:32.096Z,10.93
2023-05-09T03:22:58.836Z,10.67
2023-05-09T03:25:27.507Z,11.90
2023-05-09T03:27:55.453Z,11.40
2023-05-09T03:30:22.189Z,10.37
2023-05-09T03:32:52.290Z,11.03
2023-05-09T03:35:19.168Z,11.00
2023-05-09T03:37:46.887Z,9.90
2023-05-09T03:40:13.798Z,10.80
2023-05-09T03:42:40.852Z,12.20
2023-05-09T03:45:08.163Z,14.00
2023-05-09T03:47:35.254Z,11.97
2023-05-09T03:50:02.019Z,13.63
2023-05-09T03:52:28.725Z,13.70
2023-05-09T03:54:55.559Z,12.20
2023-05-09T03:57:22.416Z,12.10
2023-05-09T03:59:49.205Z,11.10
2023-05-09T04:02:16.413Z,10.57
2023-05-09T04:04:43.306Z,10.73
2023-05-09T04:07:10.320Z,11.17
2023-05-09T04:09:38.124Z,11.47
2023-05-09T04:12:44.224Z,10.20
2023-05-09T04:15:16.139Z,9.30
2023-05-09T04:17:49.828Z,8.63
2023-05-09T04:20:18.573Z,9.20
2023-05-09T04:22:50.359Z,11.73
2023-05-09T04:25:18.437Z,11.17
2023-05-09T04:27:45.552Z,11.13
2023-05-09T04:33:01.937Z,11.07
2023-05-09T04:35:29.122Z,15.03
2023-05-09T04:37:56.055Z,18.13
2023-05-09T04:40:24.330Z,11.03
2023-05-09T04:42:53.703Z,10.70
2023-05-09T04:45:20.447Z,10.00
2023-05-09T04:47:48.305Z,10.17
2023-05-09T04:50:17.061Z,10.13
2023-05-09T04:52:44.141Z,13.10
2023-05-09T04:55:11.046Z,9.90
2023-05-09T04:57:38.651Z,8.60
2023-05-09T05:00:19.001Z,9.10
2023-05-09T05:02:48.172Z,9.37
2023-05-09T05:05:14.991Z,8.50
2023-05-09T05:07:41.724Z,7.80
2023-05-09T05:10:08.843Z,8.47
2023-05-09T05:12:35.704Z,7.67
2023-05-09T05:15:02.459Z,6.53
2023-05-09T05:17:29.534Z,7.67
2023-05-09T05:19:56.346Z,7.03
2023-05-09T05:22:23.090Z,6.97
2023-05-09T05:24:49.868Z,6.53
2023-05-09T05:27:16.523Z,7.00
2023-05-09T05:29:43.184Z,8.60
2023-05-09T05:32:10.665Z,8.37
2023-05-09T05:34:39.453Z,6.40
2023-05-09T05:37:06.235Z,6.83
2023-05-09T05:39:32.910Z,6.50
2023-05-09T05:41:59.620Z,6.40
2023-05-09T05:44:26.311Z,9.33
2023-05-09T05:46:52.952Z,7.17
2023-05-09T05:49:23.293Z,6.87
2023-05-09T05:51:50.050Z,7.40
2023-05-09T05:54:16.718Z,11.70
2023-05-09T05:56:43.363Z,7.93
2023-05-09T05:59:12.522Z,7.60
2023-05-09T06:01:39.925Z,7.10
2023-05-09T06:04:06.745Z,8.37
2023-05-09T06:06:34.151Z,7.53
2023-05-09T06:09:00.897Z,7.17
2023-05-09T06:11:27.537Z,6.63
2023-05-09T06:13:54.274Z,7.30
2023-05-09T06:16:21.368Z,7.13
2023-05-09T06:18:48.612Z,7.03
2023-05-09T06:21:15.308Z,6.50
2023-05-09T06:23:51.023Z,6.07
2023-05-09T06:26:28.674Z,7.77
2023-05-09T06:28:56.113Z,6.83
2023-05-09T06:31:25.411Z,6.77
2023-05-09T06:33:52.669Z,8.17
2023-05-09T06:36:19.369Z,8.30
2023-05-09T06:38:46.241Z,11.93
2023-05-09T06:41:12.911Z,8.63
2023-05-09T06:43:39.819Z,8.37
2023-05-09T06:46:06.555Z,7.20
2023-05-09T06:48:33.218Z,9.13
2023-05-09T06:50:59.848Z,7.57
2023-05-09T06:53:26.472Z,7.70
2023-05-09T06:55:53.364Z,6.87
2023-05-09T06:58:20.047Z,7.40
2023-05-09T07:00:47.702Z,6.43
2023-05-09T07:03:14.430Z,7.73
2023-05-09T07:05:41.171Z,8.17
2023-05-09T07:08:07.950Z,7.73
2023-05-09T07:10:34.890Z,9.50
2023-05-09T07:13:01.720Z,9.73
2023-05-09T07:15:40.479Z,7.13
2023-05-09T07:18:09.190Z,7.27
2023-05-09T07:20:36.032Z,7.80
2023-05-09T07:23:05.983Z,8.10
2023-05-09T07:25:32.711Z,6.43
2023-05-09T07:27:59.359Z,7.13
2023-05-09T07:30:26.148Z,7.50
2023-05-09T07:32:53.112Z,8.10
2023-05-09T07:35:21.041Z,8.87
2023-05-09T07:37:47.683Z,12.23
2023-05-09T07:40:14.995Z,7.87
2023-05-09T07:42:45.082Z,9.20
2023-05-09T07:45:11.994Z,15.43
2023-05-09T07:47:38.769Z,13.20
2023-05-09T07:50:06.296Z,9.63
2023-05-09T07:52:33.130Z,10.47
2023-05-09T07:54:59.804Z,11.17
2023-05-09T07:57:26.653Z,10.40
2023-05-09T07:59:53.325Z,10.37
2023-05-09T08:02:20.050Z,10.60
2023-05-09T08:04:48.832Z,10.77
2023-05-09T08:07:15.832Z,13.03
2023-05-09T08:09:42.549Z,10.70
2023-05-09T08:12:09.236Z,11.30
2023-05-09T08:14:35.885Z,11.57
2023-05-09T08:17:02.530Z,12.10
2023-05-09T08:19:29.209Z,10.73
2023-05-09T08:21:55.949Z,11.63
2023-05-09T08:24:22.679Z,11.70
2023-05-09T08:26:49.354Z,12.20
2023-05-09T08:29:17.432Z,11.23
2023-05-09T08:31:44.293Z,11.43
2023-05-09T08:34:11.104Z,12.30
2023-05-09T08:36:37.774Z,12.83
2023-05-09T08:39:04.427Z,11.93
2023-05-09T08:41:35.931Z,17.63
2023-05-09T08:44:03.324Z,11.83
2023-05-09T08:46:35.671Z,10.67
2023-05-09T08:49:06.905Z,11.50
2023-05-09T08:51:34.465Z,11.80
2023-05-09T08:54:01.369Z,15.53
2023-05-09T08:56:29.805Z,12.30
2023-05-09T08:58:56.621Z,11.87
2023-05-09T09:01:24.457Z,11.23
2023-05-09T09:03:51.939Z,13.80
2023-05-09T09:06:21.508Z,11.37
2023-05-09T09:08:49.050Z,10.13
2023-05-09T09:11:17.220Z,11.57
2023-05-09T09:13:45.287Z,12.67
2023-05-09T09:16:20.443Z,11.67
2023-05-09T09:18:47.441Z,13.00
2023-05-09T09:21:17.093Z,11.67
2023-05-09T09:23:47.305Z,16.00
2023-05-09T09:26:14.223Z,11.83
2023-05-09T09:28:41.581Z,12.03
2023-05-09T09:31:21.500Z,13.13
2023-05-09T09:33:49.175Z,17.20
2023-05-09T09:36:16.124Z,12.87
2023-05-09T09:38:43.897Z,13.87
2023-05-09T09:41:12.644Z,14.30
2023-05-09T09:43:44.103Z,12.80
2023-05-09T09:46:10.841Z,15.67
2023-05-09T09:48:38.234Z,12.57
2023-05-09T09:51:12.633Z,12.93
2023-05-09T09:53:40.853Z,14.80
2023-05-09T09:56:08.395Z,12.93
2023-05-09T09:58:35.494Z,13.80
2023-05-09T10:01:10.564Z,14.73
2023-05-09T10:03:42.144Z,12.50
2023-05-09T10:06:16.710Z,14.37
2023-05-09T10:08:48.796Z,14.03
2023-05-09T10:11:15.913Z,13.07
2023-05-09T10:13:44.470Z,13.97
2023-05-09T10:16:12.738Z,13.80
2023-05-09T10:18:42.575Z,14.53
2023-05-09T10:21:14.421Z,14.23
2023-05-09T10:23:45.017Z,13.53
2023-05-09T10:26:27.537Z,12.23
2023-05-09T10:29:00.631Z,12.63
2023-05-09T10:31:29.739Z,14.87
2023-05-09T10:33:57.146Z,13.60
2023-05-09T10:36:24.815Z,11.83
2023-05-09T10:38:54.031Z,13.43
2023-05-09T10:41:25.760Z,12.07
2023-05-09T10:43:55.526Z,13.43
2023-05-09T10:46:23.265Z,13.87
2023-05-09T10:48:50.532Z,20.93
2023-05-09T10:51:17.560Z,13.33
2023-05-09T10:53:46.181Z,13.00
2023-05-09T10:56:26.929Z,12.30
2023-05-09T10:58:54.528Z,24.90
2023-05-09T11:01:34.673Z,13.23
2023-05-09T11:04:09.930Z,16.90
2023-05-09T11:06:54.016Z,11.30
2023-05-09T11:09:29.289Z,13.30
2023-05-09T11:11:58.675Z,12.10
2023-05-09T11:14:32.680Z,11.77
2023-05-09T11:17:05.013Z,13.00
2023-05-09T11:19:46.572Z,13.20
2023-05-09T11:22:14.423Z,15.10
2023-05-09T11:25:05.010Z,12.60
2023-05-09T11:27:42.390Z,12.50
2023-05-09T11:30:14.623Z,14.80
2023-05-09T11:32:47.365Z,10.70
2023-05-09T11:35:20.302Z,13.10
2023-05-09T11:37:58.031Z,12.87
2023-05-09T11:40:24.809Z,12.23
2023-05-09T11:42:58.458Z,11.13
2023-05-09T11:45:30.358Z,11.50
2023-05-09T11:47:58.152Z,10.93
2023-05-09T11:50:25.287Z,12.10
2023-05-09T11:52:53.847Z,11.63
2023-05-09T11:55:32.600Z,9.90
2023-05-09T11:57:59.432Z,11.07
2023-05-09T12:00:26.623Z,10.90
2023-05-09T12:02:54.049Z,10.63
2023-05-09T12:05:22.776Z,10.70
2023-05-09T12:07:52.417Z,10.60
2023-05-09T12:10:23.263Z,9.00
2023-05-09T12:12:52.206Z,8.60
2023-05-09T12:15:21.300Z,14.50
2023-05-09T12:18:00.646Z,9.40
2023-05-09T12:20:27.379Z,10.03
2023-05-09T12:22:54.603Z,9.73
2023-05-09T12:25:22.631Z,11.90
2023-05-09T12:27:49.433Z,10.60
2023-05-09T12:30:18.481Z,11.17
2023-05-09T12:32:46.575Z,9.77
2023-05-09T12:35:13.429Z,12.63
2023-05-09T12:37:40.270Z,10.03
2023-05-09T12:40:12.243Z,10.97
2023-05-09T12:42:39.667Z,13.80
2023-05-09T12:45:08.797Z,12.70
2023-05-09T12:47:35.673Z,9.10
2023-05-09T12:50:04.281Z,9.27
2023-05-09T12:52:50.213Z,8.10
2023-05-09T12:55:25.517Z,8.60
2023-05-09T12:58:03.254Z,9.07
2023-05-09T13:00:44.914Z,8.97
2023-05-09T13:03:27.227Z,8.60
2023-05-09T13:05:56.191Z,8.10
2023-05-09T13:08:23.152Z,12.83
2023-05-09T13:10:51.132Z,9.47
2023-05-09T13:13:21.783Z,9.73
2023-05-09T13:15:48.928Z,10.77
2023-05-09T13:18:15.693Z,11.30
2023-05-09T13:20:42.392Z,10.53
2023-05-09T13:23:09.190Z,8.70
2023-05-09T13:25:36.181Z,9.47
2023-05-09T13:28:04.721Z,10.50
2023-05-09T13:30:32.554Z,9.20
2023-05-09T13:33:06.272Z,10.00
2023-05-09T13:35:39.711Z,9.37
2023-05-09T13:38:06.489Z,8.50
2023-05-09T13:40:33.100Z,10.43
2023-05-09T13:42:59.779Z,9.30
2023-05-09T13:45:26.461Z,10.97
2023-05-09T13:47:53.163Z,7.23
2023-05-09T13:50:19.853Z,9.40
2023-05-09T13:52:46.557Z,10.40
2023-05-09T13:55:13.353Z,8.80
2023-05-09T13:57:40.011Z,9.50
2023-05-09T14:00:07.869Z,9.90
2023-05-09T14:02:34.559Z,10.53
2023-05-09T14:05:03.123Z,11.53
2023-05-09T14:07:29.886Z,7.00
2023-05-09T14:10:10.539Z,7.23
2023-05-09T14:12:39.584Z,11.23
2023-05-09T14:15:08.118Z,9.57
2023-05-09T14:17:34.986Z,7.93
2023-05-09T14:20:01.844Z,8.27
2023-05-09T14:22:28.495Z,7.63
2023-05-09T14:24:57.279Z,12.40
2023-05-09T14:27:24.910Z,7.50
2023-05-09T14:29:51.593Z,11.50
2023-05-09T14:32:18.290Z,8.00
2023-05-09T14:34:45.623Z,7.03
2023-05-09T14:37:15.082Z,13.03
2023-05-09T14:39:42.523Z,8.07
2023-05-09T14:42:11.407Z,8.03
2023-05-09T14:44:38.676Z,11.33
2023-05-09T14:47:05.853Z,7.43
2023-05-09T14:49:32.869Z,8.20
2023-05-09T14:51:59.893Z,8.53
2023-05-09T14:54:26.565Z,7.33
2023-05-09T14:56:53.217Z,7.33
2023-05-09T14:59:19.913Z,7.33
2023-05-09T15:01:46.966Z,7.10
2023-05-09T15:04:13.725Z,7.30
2023-05-09T15:06:40.964Z,5.57
2023-05-09T15:09:07.784Z,4.67
2023-05-09T15:11:46.737Z,8.30
2023-05-09T15:14:14.973Z,10.33
2023-05-09T15:16:41.791Z,7.53
2023-05-09T15:19:08.718Z,4.70
2023-05-09T15:21:35.632Z,9.63
2023-05-09T15:24:02.546Z,6.03
2023-05-09T15:26:29.972Z,9.80
2023-05-09T15:28:56.648Z,6.20
2023-05-09T15:31:24.797Z,7.27
2023-05-09T15:33:52.073Z,11.23
2023-05-09T15:36:18.778Z,6.80
2023-05-09T15:38:49.095Z,7.10
2023-05-09T15:41:16.630Z,6.80
2023-05-09T15:43:43.316Z,5.50
2023-05-09T15:46:10.015Z,8.53
2023-05-09T15:48:36.699Z,7.13
2023-05-09T15:51:04.184Z,5.50
2023-05-09T15:53:31.103Z,5.20
2023-05-09T15:55:57.968Z,6.73
2023-05-09T15:58:24.856Z,8.47
2023-05-09T16:00:51.677Z,10.33
2023-05-09T16:03:18.842Z,6.27
2023-05-09T16:05:45.647Z,6.07
2023-05-09T16:08:12.546Z,7.60
2023-05-09T16:10:39.588Z,5.93
2023-05-09T16:13:07.562Z,5.17
2023-05-09T16:15:34.450Z,7.00
2023-05-09T16:18:01.184Z,7.00
2023-05-09T16:20:27.863Z,4.20
2023-05-09T16:22:54.506Z,5.47
2023-05-09T16:25:21.325Z,7.43
2023-05-09T16:27:47.961Z,5.60
2023-05-09T16:30:15.380Z,5.47
2023-05-09T16:32:42.834Z,5.50
2023-05-09T16:35:10.216Z,12.20
2023-05-09T16:37:37.339Z,5.90
2023-05-09T16:40:04.493Z,6.67
2023-05-09T16:42:31.235Z,8.90
2023-05-09T16:44:58.025Z,5.90
2023-05-09T16:47:24.994Z,7.17
2023-05-09T16:49:51.669Z,7.07
2023-05-09T16:52:18.443Z,5.83
2023-05-09T16:54:45.244Z,9.13
2023-05-09T16:57:13.274Z,7.00
2023-05-09T16:59:40.194Z,7.90
2023-05-09T17:02:08.524Z,7.33
2023-05-09T17:04:37.559Z,7.80
2023-05-09T17:07:04.699Z,7.17
2023-05-09T17:09:32.416Z,8.73
2023-05-09T17:12:00.524Z,12.23
2023-05-09T17:14:27.428Z,8.80
2023-05-09T17:16:54.179Z,6.30
2023-05-09T17:19:23.343Z,9.10
2023-05-09T17:21:50.232Z,8.50
2023-05-09T17:24:17.356Z,5.43
2023-05-09T17:26:44.152Z,5.70
2023-05-09T17:29:10.939Z,6.47
2023-05-09T17:31:37.720Z,8.00
2023-05-09T17:34:05.426Z,6.43
2023-05-09T17:36:33.473Z,5.63
2023-05-09T17:39:00.726Z,12.27
2023-05-09T17:41:27.662Z,7.00
2023-05-09T17:43:57.295Z,4.70
2023-05-09T17:46:24.551Z,6.40
2023-05-09T17:48:51.442Z,7.53
2023-05-09T17:51:18.132Z,5.97
2023-05-09T17:53:44.934Z,5.27
2023-05-09T17:56:11.583Z,5.53
2023-05-09T17:58:38.220Z,6.10
2023-05-09T18:01:05.412Z,4.87
2023-05-09T18:03:32.561Z,5.23
2023-05-09T18:06:00.387Z,5.70
2023-05-09T18:08:27.474Z,5.57
2023-05-09T18:10:56.824Z,6.00
2023-05-09T18:13:23.644Z,4.50
2023-05-09T18:15:50.540Z,4.70
2023-05-09T18:18:17.268Z,4.97
2023-05-09T18:20:46.292Z,5.80
2023-05-09T18:23:14.635Z,9.10
2023-05-09T18:25:41.908Z,7.43
2023-05-09T18:28:08.582Z,6.70
2023-05-09T18:30:36.131Z,7.50
2023-05-09T18:33:03.092Z,5.73
2023-05-09T18:35:29.935Z,6.23
2023-05-09T18:37:56.675Z,6.30
2023-05-09T18:40:23.341Z,6.50
2023-05-09T18:42:50.032Z,5.57
2023-05-09T18:45:16.742Z,4.63
2023-05-09T18:47:43.389Z,8.77
2023-05-09T18:50:10.740Z,5.80
2023-05-09T18:52:37.498Z,6.80
2023-05-09T18:55:05.779Z,9.63
2023-05-09T18:57:33.865Z,5.33
2023-05-09T19:00:00.708Z,5.83
2023-05-09T19:02:27.497Z,5.67
2023-05-09T19:04:54.333Z,6.80
2023-05-09T19:07:20.986Z,6.33
2023-05-09T19:09:47.739Z,6.00
2023-05-09T19:12:16.315Z,10.20
2023-05-09T19:14:43.436Z,6.23
2023-05-09T19:17:10.776Z,7.10
2023-05-09T19:19:37.423Z,7.67
2023-05-09T19:22:04.827Z,5.80
2023-05-09T19:24:32.833Z,8.80
2023-05-09T19:26:59.548Z,6.77
2023-05-09T19:29:26.277Z,7.50
2023-05-09T19:31:52.966Z,5.67
2023-05-09T19:34:19.752Z,5.87
2023-05-09T19:36:46.436Z,5.50
2023-05-09T19:39:13.094Z,8.03
2023-05-09T19:41:40.542Z,6.07
2023-05-09T19:44:07.373Z,5.60
2023-05-09T19:46:35.286Z,6.63
2023-05-09T19:49:02.230Z,7.17
2023-05-09T19:51:29.521Z,6.90
2023-05-09T19:53:56.706Z,6.40
2023-05-09T19:56:23.791Z,5.97
2023-05-09T19:58:50.841Z,7.17
2023-05-09T20:01:19.218Z,7.73
2023-05-09T20:03:52.152Z,7.07
2023-05-09T20:06:19.297Z,7.03
2023-05-09T20:08:46.960Z,6.43
2023-05-09T20:11:14.628Z,6.67
2023-05-09T20:13:42.237Z,5.73
2023-05-09T20:16:09.123Z,7.00
2023-05-09T20:18:35.909Z,6.03
2023-05-09T20:21:03.434Z,7.10
2023-05-09T20:23:31.098Z,5.10
2023-05-09T20:25:58.175Z,5.20
2023-05-09T20:28:25.156Z,5.27
2023-05-09T20:30:51.840Z,7.80
2023-05-09T20:33:19.010Z,5.93
2023-05-09T20:35:45.734Z,6.20
2023-05-09T20:38:12.463Z,6.53
2023-05-09T20:40:41.039Z,4.83
2023-05-09T20:43:07.748Z,7.03
2023-05-09T20:45:37.145Z,8.70
2023-05-09T20:48:05.609Z,5.80
2023-05-09T20:50:32.427Z,5.73
2023-05-09T20:52:59.130Z,7.63
2023-05-09T20:55:25.752Z,5.73
2023-05-09T20:57:52.432Z,10.23
2023-05-09T21:00:19.614Z,5.37
2023-05-09T21:02:46.347Z,5.10
2023-05-09T21:05:13.082Z,6.20
2023-05-09T21:07:39.719Z,6.97
2023-05-09T21:10:07.000Z,6.20
2023-05-09T21:12:33.623Z,8.70
2023-05-09T21:15:00.382Z,6.77
2023-05-09T21:17:27.245Z,7.27
2023-05-09T21:19:53.936Z,6.77
2023-05-09T21:22:20.611Z,5.33
2023-05-09T21:24:47.353Z,6.60
2023-05-09T21:27:14.251Z,5.50
2023-05-09T21:29:40.983Z,6.93
2023-05-09T21:32:07.857Z,6.17
2023-05-09T21:34:34.629Z,7.67
2023-05-09T21:37:01.294Z,5.93
2023-05-09T21:39:27.998Z,7.73
2023-05-09T21:41:54.728Z,5.70
2023-05-09T21:44:21.382Z,5.13
2023-05-09T21:46:48.097Z,6.60
2023-05-09T21:49:16.895Z,6.00
2023-05-09T21:51:43.632Z,9.00
2023-05-09T21:54:10.965Z,6.40
2023-05-09T21:56:37.875Z,7.27
2023-05-09T21:59:04.873Z,5.60
2023-05-09T22:01:31.763Z,5.20
2023-05-09T22:03:58.724Z,4.30
2023-05-09T22:06:25.610Z,3.93
2023-05-09T22:08:52.276Z,3.70
2023-05-09T22:11:19.037Z,3.40
2023-05-09T22:13:45.714Z,2.97
2023-05-09T22:16:13.234Z,2.93
2023-05-09T22:18:40.077Z,4.70
2023-05-09T22:21:07.010Z,2.00
2023-05-09T22:23:33.700Z,3.77
2023-05-09T22:26:00.420Z,2.80
2023-05-09T22:28:27.137Z,4.63
2023-05-09T22:30:53.775Z,1.87
2023-05-09T22:33:20.729Z,1.57
2023-05-09T22:35:47.894Z,1.63
2023-05-09T22:38:14.622Z,1.10
2023-05-09T22:40:41.597Z,1.30
2023-05-09T22:43:10.478Z,1.47
2023-05-09T22:45:37.257Z,1.37
2023-05-09T22:48:04.170Z,1.60
2023-05-09T22:50:31.035Z,1.50
2023-05-09T22:52:57.765Z,1.90
2023-05-09T22:55:24.458Z,1.73
2023-05-09T22:57:51.210Z,1.00
2023-05-09T23:00:18.426Z,0.90
2023-05-09T23:02:45.459Z,0.77
2023-05-09T23:05:12.249Z,0.70
2023-05-09T23:07:39.009Z,0.70
2023-05-09T23:10:05.995Z,0.90
2023-05-09T23:12:32.746Z,1.33
2023-05-09T23:14:59.496Z,0.70
2023-05-09T23:17:26.264Z,0.80
2023-05-09T23:19:53.053Z,0.83
2023-05-09T23:22:19.722Z,0.90
2023-05-09T23:24:46.480Z,1.47
2023-05-09T23:27:13.157Z,1.00
2023-05-09T23:29:39.831Z,3.87
2023-05-09T23:32:06.673Z,1.00
2023-05-09T23:34:33.782Z,0.77
2023-05-09T23:37:00.500Z,1.47
2023-05-09T23:39:27.900Z,1.90
2023-05-09T23:41:54.586Z,1.20
2023-05-09T23:44:21.290Z,1.67
2023-05-09T23:46:48.026Z,4.00
2023-05-09T23:49:14.808Z,2.00
2023-05-09T23:51:41.557Z,1.73
2023-05-09T23:54:08.573Z,2.30
2023-05-09T23:56:35.477Z,1.07
2023-05-09T23:59:02.153Z,1.30
